createdAt,value
2022-12-19T00:02:51.417Z,13.60
2022-12-19T00:07:55.858Z,15.00
2022-12-19T00:13:00.811Z,14.70
2022-12-19T00:18:05.156Z,15.90
2022-12-19T00:23:08.875Z,15.80
2022-12-19T00:28:12.600Z,16.70
2022-12-19T00:33:16.325Z,17.00
2022-12-19T00:38:20.053Z,16.40
2022-12-19T00:43:23.900Z,17.30
2022-12-19T00:48:27.707Z,18.10
2022-12-19T00:53:31.431Z,17.80
2022-12-19T00:58:35.748Z,18.40
2022-12-19T01:03:41.751Z,17.90
2022-12-19T01:08:53.130Z,17.10
2022-12-19T01:13:58.511Z,17.00
2022-12-19T01:19:02.547Z,16.90
2022-12-19T01:24:08.830Z,17.40
2022-12-19T01:29:12.859Z,17.00
2022-12-19T01:34:16.694Z,17.10
2022-12-19T01:39:20.424Z,18.60
2022-12-19T01:44:26.799Z,18.20
2022-12-19T01:49:36.309Z,18.90
2022-12-19T01:54:41.631Z,18.60
2022-12-19T01:59:56.366Z,18.90
2022-12-19T02:05:03.880Z,18.60
2022-12-19T02:10:08.225Z,18.30
2022-12-19T02:15:16.210Z,18.20
2022-12-19T02:21:04.197Z,18.50
2022-12-19T02:26:17.144Z,20.10
2022-12-19T02:31:29.985Z,18.40
2022-12-19T08:09:07.792Z,16.50
2022-12-19T08:14:14.915Z,17.60
2022-12-19T08:19:27.592Z,17.60
2022-12-19T08:24:35.550Z,16.90
2022-12-19T08:29:41.420Z,17.00
2022-12-19T08:34:45.558Z,16.40
2022-12-19T08:39:49.533Z,15.00
2022-12-19T08:44:53.925Z,16.80
2022-12-19T08:49:58.285Z,15.40
2022-12-19T08:55:03.322Z,17.50
2022-12-19T09:00:07.179Z,17.80
2022-12-19T09:33:41.239Z,15.50
2022-12-19T09:39:02.318Z,13.40
2022-12-19T09:44:49.614Z,14.00
2022-12-19T09:55:33.912Z,15.40
2022-12-19T10:00:43.593Z,14.80
2022-12-19T10:07:16.198Z,13.60
2022-12-19T10:12:44.610Z,14.00
2022-12-19T10:17:27.100Z,14.10
2022-12-19T10:22:56.175Z,14.10
2022-12-19T10:28:29.250Z,14.20
2022-12-19T10:33:44.331Z,13.40
2022-12-19T10:38:54.727Z,13.30
2022-12-19T10:44:10.442Z,12.80
2022-12-19T10:49:19.452Z,14.00
2022-12-19T10:54:33.085Z,13.30
2022-12-19T10:59:37.365Z,13.10
2022-12-19T11:04:41.624Z,12.00
2022-12-19T11:09:52.427Z,11.70
2022-12-19T11:19:54.530Z,12.60
2022-12-19T11:29:19.131Z,12.70
2022-12-19T11:30:43.175Z,11.60
2022-12-19T11:37:21.774Z,11.70
2022-12-19T11:47:46.213Z,11.50
2022-12-19T11:53:07.803Z,10.50
2022-12-19T11:58:14.551Z,11.40
2022-12-19T12:04:01.005Z,10.60
2022-12-19T12:12:47.482Z,9.60
2022-12-19T12:28:19.518Z,10.60
2022-12-19T12:31:02.136Z,9.60
2022-12-19T12:31:48.867Z,8.90
2022-12-19T12:35:31.529Z,9.90
2022-12-19T12:39:33.340Z,10.40
2022-12-19T12:44:46.132Z,9.40
2022-12-19T12:50:00.091Z,10.20
2022-12-19T12:55:06.352Z,9.90
2022-12-19T13:00:24.270Z,9.50
2022-12-19T13:05:46.448Z,9.90
2022-12-19T13:10:59.365Z,10.00
2022-12-19T13:16:41.442Z,8.90
2022-12-19T13:22:04.159Z,8.60
2022-12-19T13:27:20.044Z,9.50
2022-12-19T13:32:24.289Z,9.10
2022-12-19T13:40:02.344Z,8.30
2022-12-19T13:43:25.812Z,8.60
2022-12-19T13:48:45.027Z,8.20
2022-12-19T13:54:00.163Z,8.30
2022-12-19T13:59:08.889Z,8.30
2022-12-19T14:04:28.340Z,8.60
2022-12-19T14:11:30.160Z,8.30
2022-12-19T14:15:32.126Z,8.90
2022-12-19T14:22:11.570Z,9.20
2022-12-19T14:28:19.922Z,9.20
2022-12-19T14:31:35.867Z,8.40
2022-12-19T14:36:41.319Z,9.10
2022-12-19T14:42:06.515Z,8.40
2022-12-19T14:52:36.099Z,8.20
2022-12-19T14:54:25.923Z,7.50
2022-12-19T14:58:53.445Z,8.10
2022-12-19T15:04:33.670Z,7.90
2022-12-19T15:11:04.093Z,7.90
2022-12-19T15:14:56.395Z,7.80
2022-12-19T15:20:02.628Z,9.40
2022-12-19T15:25:35.845Z,8.60
2022-12-19T15:30:41.289Z,8.20
2022-12-19T15:35:45.396Z,7.90
2022-12-19T15:40:49.669Z,7.70
2022-12-19T15:45:59.850Z,8.50
2022-12-19T15:51:05.709Z,9.20
2022-12-19T15:56:28.591Z,7.90
2022-12-19T16:01:33.883Z,7.90
2022-12-19T16:06:38.477Z,8.30
2022-12-19T16:11:42.217Z,8.50
2022-12-19T16:16:52.481Z,9.10
2022-12-19T16:27:31.584Z,8.60
2022-12-19T16:32:35.385Z,8.30
2022-12-19T16:37:39.012Z,8.10
2022-12-19T16:42:44.671Z,8.40
2022-12-19T16:47:49.550Z,8.40
2022-12-19T16:52:55.204Z,7.70
2022-12-19T16:58:04.301Z,16.00
2022-12-19T17:03:36.835Z,7.70
2022-12-19T17:08:41.892Z,8.20
2022-12-19T17:13:51.643Z,8.60
2022-12-19T17:18:55.481Z,8.80
2022-12-19T17:24:01.965Z,8.10
2022-12-19T17:29:06.405Z,9.40
2022-12-19T17:34:24.859Z,10.00
2022-12-19T17:39:32.419Z,12.40
2022-12-19T17:44:39.302Z,10.40
2022-12-19T17:49:44.426Z,12.10
2022-12-19T17:54:50.916Z,10.70
2022-12-19T17:59:54.745Z,9.50
2022-12-19T18:04:58.979Z,11.50
2022-12-19T18:10:02.605Z,10.10
2022-12-19T18:15:07.125Z,11.20
2022-12-19T18:20:37.404Z,10.60
2022-12-19T18:25:47.813Z,10.40
2022-12-19T18:31:35.135Z,10.70
2022-12-19T18:36:55.234Z,10.20
2022-12-19T18:42:03.067Z,10.20
2022-12-19T18:47:24.649Z,10.40
2022-12-19T18:52:47.546Z,10.20
2022-12-19T18:58:27.034Z,10.50
2022-12-19T19:03:45.816Z,9.90
2022-12-19T19:08:53.533Z,9.90
2022-12-19T19:14:32.239Z,9.00
2022-12-19T19:19:38.611Z,9.70
2022-12-19T19:24:45.316Z,10.10
2022-12-19T19:29:55.490Z,8.60
2022-12-19T19:35:03.220Z,8.80
2022-12-19T19:40:16.832Z,9.60
2022-12-19T19:45:27.618Z,9.50
2022-12-19T19:50:37.165Z,8.40
2022-12-19T19:55:42.067Z,7.90
2022-12-19T20:00:50.842Z,8.60
2022-12-19T20:06:05.922Z,9.10
2022-12-19T20:11:12.275Z,8.70
2022-12-19T20:16:23.434Z,9.20
2022-12-19T20:21:29.538Z,9.40
2022-12-19T20:26:33.795Z,8.90
2022-12-19T20:31:39.863Z,9.20
2022-12-19T20:36:49.835Z,8.30
2022-12-19T20:41:54.290Z,8.60
2022-12-19T20:46:59.535Z,7.80
2022-12-19T20:52:03.878Z,8.00
2022-12-19T20:57:11.893Z,8.50
2022-12-19T21:02:25.646Z,8.10
2022-12-19T21:07:31.905Z,8.60
2022-12-19T21:12:47.370Z,7.70
2022-12-19T21:17:55.811Z,7.50
2022-12-19T21:23:09.665Z,8.30
2022-12-19T21:28:32.597Z,7.80
2022-12-19T21:33:37.848Z,7.00
2022-12-19T21:38:44.332Z,7.60
2022-12-19T21:43:51.988Z,8.30
2022-12-19T21:48:59.748Z,7.40
2022-12-19T21:54:05.301Z,7.80
2022-12-19T21:59:15.479Z,7.30
2022-12-19T22:04:24.245Z,7.50
2022-12-19T22:09:34.250Z,8.60
2022-12-19T22:14:46.063Z,8.00
2022-12-19T22:19:51.476Z,9.80
2022-12-19T22:24:59.295Z,8.70
2022-12-19T22:30:08.808Z,9.90
2022-12-19T22:35:14.932Z,8.90
2022-12-19T22:40:20.706Z,8.60
2022-12-19T22:45:24.330Z,8.50
2022-12-19T22:50:30.817Z,9.10
2022-12-19T22:55:34.675Z,8.90
2022-12-19T23:00:38.478Z,8.90
2022-12-19T23:05:46.928Z,8.20
2022-12-19T23:10:54.213Z,7.80
2022-12-19T23:15:58.455Z,8.10
2022-12-19T23:21:09.348Z,8.40
2022-12-19T23:31:22.053Z,9.40
2022-12-19T23:37:08.824Z,8.40
2022-12-19T23:41:56.682Z,7.70
2022-12-19T23:47:03.385Z,8.10
2022-12-19T23:52:07.713Z,7.20
2022-12-19T23:57:11.442Z,7.90
